sensor_id;sensor_type;location;lat;lon;timestamp;P1;durP1;ratioP1;P2;durP2;ratioP2
18610;SDS011;9435;52.122;5.502;2023-07-30T00:02:02;7.60;;;2.33;;
18610;SDS011;9435;52.122;5.502;2023-07-30T00:04:29;8.48;;;2.42;;
18610;SDS011;9435;52.122;5.502;2023-07-30T00:06:56;5.72;;;2.25;;
18610;SDS011;9435;52.122;5.502;2023-07-30T00:09:23;9.85;;;2.67;;
18610;SDS011;9435;52.122;5.502;2023-07-30T00:11:50;7.90;;;2.70;;
18610;SDS011;9435;52.122;5.502;2023-07-30T00:14:18;8.63;;;2.65;;
18610;SDS011;9435;52.122;5.502;2023-07-30T00:16:45;7.15;;;2.80;;
18610;SDS011;9435;52.122;5.502;2023-07-30T00:19:13;7.10;;;2.65;;
18610;SDS011;9435;52.122;5.502;2023-07-30T00:21:40;8.75;;;2.33;;
18610;SDS011;9435;52.122;5.502;2023-07-30T00:24:11;8.82;;;2.83;;
18610;SDS011;9435;52.122;5.502;2023-07-30T00:26:38;6.68;;;2.40;;
18610;SDS011;9435;52.122;5.502;2023-07-30T00:29:05;7.70;;;2.30;;
18610;SDS011;9435;52.122;5.502;2023-07-30T00:31:33;8.45;;;2.42;;
18610;SDS011;9435;52.122;5.502;2023-07-30T00:34:00;10.18;;;2.70;;
18610;SDS011;9435;52.122;5.502;2023-07-30T00:36:27;9.85;;;2.63;;
18610;SDS011;9435;52.122;5.502;2023-07-30T00:38:54;10.02;;;2.72;;
18610;SDS011;9435;52.122;5.502;2023-07-30T00:41:22;11.20;;;2.50;;
18610;SDS011;9435;52.122;5.502;2023-07-30T00:43:49;8.07;;;2.67;;
18610;SDS011;9435;52.122;5.502;2023-07-30T00:46:16;6.90;;;2.63;;
18610;SDS011;9435;52.122;5.502;2023-07-30T00:48:44;11.57;;;3.22;;
18610;SDS011;9435;52.122;5.502;2023-07-30T00:51:12;9.75;;;3.05;;
18610;SDS011;9435;52.122;5.502;2023-07-30T00:53:41;12.00;;;3.17;;
18610;SDS011;9435;52.122;5.502;2023-07-30T00:56:08;10.98;;;3.17;;
18610;SDS011;9435;52.122;5.502;2023-07-30T00:58:35;12.55;;;2.90;;
18610;SDS011;9435;52.122;5.502;2023-07-30T01:01:03;10.63;;;3.50;;
18610;SDS011;9435;52.122;5.502;2023-07-30T01:03:30;11.98;;;3.20;;
18610;SDS011;9435;52.122;5.502;2023-07-30T01:05:59;16.70;;;3.78;;
18610;SDS011;9435;52.122;5.502;2023-07-30T01:08:26;9.10;;;3.28;;
18610;SDS011;9435;52.122;5.502;2023-07-30T01:10:54;11.20;;;3.33;;
18610;SDS011;9435;52.122;5.502;2023-07-30T01:13:22;8.70;;;3.40;;
18610;SDS011;9435;52.122;5.502;2023-07-30T01:15:49;10.60;;;3.72;;
18610;SDS011;9435;52.122;5.502;2023-07-30T01:18:17;12.38;;;3.58;;
18610;SDS011;9435;52.122;5.502;2023-07-30T01:20:44;10.85;;;3.50;;
18610;SDS011;9435;52.122;5.502;2023-07-30T01:23:12;10.43;;;3.72;;
18610;SDS011;9435;52.122;5.502;2023-07-30T01:25:39;12.65;;;3.78;;
18610;SDS011;9435;52.122;5.502;2023-07-30T01:28:08;9.20;;;3.70;;
18610;SDS011;9435;52.122;5.502;2023-07-30T01:30:40;8.27;;;3.50;;
18610;SDS011;9435;52.122;5.502;2023-07-30T01:33:09;8.20;;;3.40;;
18610;SDS011;9435;52.122;5.502;2023-07-30T01:35:37;12.20;;;3.83;;
18610;SDS011;9435;52.122;5.502;2023-07-30T01:38:04;10.02;;;3.60;;
18610;SDS011;9435;52.122;5.502;2023-07-30T01:40:35;12.25;;;3.80;;
18610;SDS011;9435;52.122;5.502;2023-07-30T01:43:02;10.23;;;3.55;;
18610;SDS011;9435;52.122;5.502;2023-07-30T01:45:29;12.20;;;3.50;;
18610;SDS011;9435;52.122;5.502;2023-07-30T01:47:56;13.65;;;3.78;;
18610;SDS011;9435;52.122;5.502;2023-07-30T01:50:24;12.25;;;3.97;;
18610;SDS011;9435;52.122;5.502;2023-07-30T01:52:50;15.55;;;3.90;;
18610;SDS011;9435;52.122;5.502;2023-07-30T01:55:18;12.48;;;3.65;;
18610;SDS011;9435;52.122;5.502;2023-07-30T01:57:46;11.18;;;3.30;;
18610;SDS011;9435;52.122;5.502;2023-07-30T02:00:13;15.25;;;4.05;;
18610;SDS011;9435;52.122;5.502;2023-07-30T02:02:40;13.40;;;3.83;;
18610;SDS011;9435;52.122;5.502;2023-07-30T02:05:07;9.60;;;3.45;;
18610;SDS011;9435;52.122;5.502;2023-07-30T02:07:34;12.27;;;3.85;;
18610;SDS011;9435;52.122;5.502;2023-07-30T02:10:01;12.35;;;3.85;;
18610;SDS011;9435;52.122;5.502;2023-07-30T02:12:29;12.00;;;3.67;;
18610;SDS011;9435;52.122;5.502;2023-07-30T02:14:57;10.45;;;3.78;;
18610;SDS011;9435;52.122;5.502;2023-07-30T02:17:24;13.43;;;3.58;;
18610;SDS011;9435;52.122;5.502;2023-07-30T02:19:51;17.15;;;4.20;;
18610;SDS011;9435;52.122;5.502;2023-07-30T02:22:18;11.88;;;3.65;;
18610;SDS011;9435;52.122;5.502;2023-07-30T02:24:45;13.77;;;3.80;;
18610;SDS011;9435;52.122;5.502;2023-07-30T02:27:12;13.52;;;3.65;;
18610;SDS011;9435;52.122;5.502;2023-07-30T02:29:39;12.70;;;3.95;;
18610;SDS011;9435;52.122;5.502;2023-07-30T02:32:08;13.60;;;3.97;;
18610;SDS011;9435;52.122;5.502;2023-07-30T02:34:35;14.48;;;3.72;;
18610;SDS011;9435;52.122;5.502;2023-07-30T02:37:02;16.35;;;4.20;;
18610;SDS011;9435;52.122;5.502;2023-07-30T02:39:30;13.90;;;3.92;;
18610;SDS011;9435;52.122;5.502;2023-07-30T02:41:57;10.18;;;3.63;;
18610;SDS011;9435;52.122;5.502;2023-07-30T02:44:24;15.30;;;4.15;;
18610;SDS011;9435;52.122;5.502;2023-07-30T02:46:51;17.33;;;4.20;;
18610;SDS011;9435;52.122;5.502;2023-07-30T02:49:19;14.00;;;3.63;;
18610;SDS011;9435;52.122;5.502;2023-07-30T02:51:46;16.40;;;4.43;;
18610;SDS011;9435;52.122;5.502;2023-07-30T02:54:14;17.90;;;4.65;;
18610;SDS011;9435;52.122;5.502;2023-07-30T02:56:42;16.42;;;4.43;;
18610;SDS011;9435;52.122;5.502;2023-07-30T02:59:10;16.83;;;4.15;;
18610;SDS011;9435;52.122;5.502;2023-07-30T03:01:37;18.63;;;4.38;;
18610;SDS011;9435;52.122;5.502;2023-07-30T03:04:04;20.70;;;4.35;;
18610;SDS011;9435;52.122;5.502;2023-07-30T03:06:33;13.57;;;4.18;;
18610;SDS011;9435;52.122;5.502;2023-07-30T03:09:00;16.65;;;4.07;;
18610;SDS011;9435;52.122;5.502;2023-07-30T03:11:27;15.82;;;4.45;;
18610;SDS011;9435;52.122;5.502;2023-07-30T03:13:54;16.77;;;4.40;;
18610;SDS011;9435;52.122;5.502;2023-07-30T03:16:21;17.60;;;4.65;;
18610;SDS011;9435;52.122;5.502;2023-07-30T03:18:48;14.70;;;4.43;;
18610;SDS011;9435;52.122;5.502;2023-07-30T03:21:16;14.90;;;4.30;;
18610;SDS011;9435;52.122;5.502;2023-07-30T03:23:44;15.55;;;4.60;;
18610;SDS011;9435;52.122;5.502;2023-07-30T03:26:13;17.27;;;4.35;;
18610;SDS011;9435;52.122;5.502;2023-07-30T03:28:40;14.95;;;4.30;;
18610;SDS011;9435;52.122;5.502;2023-07-30T03:31:07;14.93;;;4.47;;
18610;SDS011;9435;52.122;5.502;2023-07-30T03:33:34;22.60;;;4.95;;
18610;SDS011;9435;52.122;5.502;2023-07-30T03:36:03;18.13;;;4.90;;
18610;SDS011;9435;52.122;5.502;2023-07-30T03:38:30;18.40;;;4.80;;
18610;SDS011;9435;52.122;5.502;2023-07-30T03:40:59;16.38;;;5.00;;
18610;SDS011;9435;52.122;5.502;2023-07-30T03:43:26;22.35;;;5.10;;
18610;SDS011;9435;52.122;5.502;2023-07-30T03:45:53;18.05;;;5.28;;
18610;SDS011;9435;52.122;5.502;2023-07-30T03:48:20;19.77;;;5.30;;
18610;SDS011;9435;52.122;5.502;2023-07-30T03:50:47;21.63;;;5.40;;
18610;SDS011;9435;52.122;5.502;2023-07-30T03:53:14;17.20;;;5.13;;
18610;SDS011;9435;52.122;5.502;2023-07-30T03:55:41;18.85;;;5.82;;
18610;SDS011;9435;52.122;5.502;2023-07-30T03:58:10;14.40;;;4.97;;
18610;SDS011;9435;52.122;5.502;2023-07-30T04:00:37;21.20;;;5.53;;
18610;SDS011;9435;52.122;5.502;2023-07-30T04:03:04;22.23;;;6.00;;
18610;SDS011;9435;52.122;5.502;2023-07-30T04:05:31;19.00;;;5.57;;
18610;SDS011;9435;52.122;5.502;2023-07-30T04:07:58;23.98;;;5.95;;
18610;SDS011;9435;52.122;5.502;2023-07-30T04:10:25;24.42;;;6.35;;
18610;SDS011;9435;52.122;5.502;2023-07-30T04:12:52;18.35;;;5.65;;
18610;SDS011;9435;52.122;5.502;2023-07-30T04:15:21;25.52;;;6.13;;
18610;SDS011;9435;52.122;5.502;2023-07-30T04:17:48;19.33;;;5.72;;
18610;SDS011;9435;52.122;5.502;2023-07-30T04:20:15;17.63;;;5.47;;
18610;SDS011;9435;52.122;5.502;2023-07-30T04:22:43;26.20;;;6.47;;
18610;SDS011;9435;52.122;5.502;2023-07-30T04:25:10;25.38;;;7.00;;
18610;SDS011;9435;52.122;5.502;2023-07-30T04:27:37;23.70;;;6.32;;
18610;SDS011;9435;52.122;5.502;2023-07-30T04:30:04;24.05;;;7.07;;
18610;SDS011;9435;52.122;5.502;2023-07-30T04:32:33;32.05;;;7.25;;
18610;SDS011;9435;52.122;5.502;2023-07-30T04:35:00;23.88;;;6.85;;
18610;SDS011;9435;52.122;5.502;2023-07-30T04:37:28;20.98;;;6.72;;
18610;SDS011;9435;52.122;5.502;2023-07-30T04:39:56;30.08;;;8.18;;
18610;SDS011;9435;52.122;5.502;2023-07-30T04:42:23;28.92;;;8.50;;
18610;SDS011;9435;52.122;5.502;2023-07-30T04:44:50;28.83;;;8.52;;
18610;SDS011;9435;52.122;5.502;2023-07-30T04:47:17;23.55;;;7.60;;
18610;SDS011;9435;52.122;5.502;2023-07-30T04:49:46;34.88;;;9.43;;
18610;SDS011;9435;52.122;5.502;2023-07-30T04:52:13;31.42;;;8.80;;
18610;SDS011;9435;52.122;5.502;2023-07-30T04:54:40;31.65;;;9.57;;
18610;SDS011;9435;52.122;5.502;2023-07-30T04:57:07;25.92;;;9.00;;
18610;SDS011;9435;52.122;5.502;2023-07-30T04:59:34;32.08;;;9.18;;
18610;SDS011;9435;52.122;5.502;2023-07-30T05:02:01;33.45;;;9.32;;
18610;SDS011;9435;52.122;5.502;2023-07-30T05:04:28;35.72;;;10.30;;
18610;SDS011;9435;52.122;5.502;2023-07-30T05:06:57;33.20;;;10.10;;
18610;SDS011;9435;52.122;5.502;2023-07-30T05:09:24;29.73;;;10.10;;
18610;SDS011;9435;52.122;5.502;2023-07-30T05:11:51;39.28;;;11.20;;
18610;SDS011;9435;52.122;5.502;2023-07-30T05:14:18;37.05;;;10.85;;
18610;SDS011;9435;52.122;5.502;2023-07-30T05:16:45;36.90;;;10.75;;
18610;SDS011;9435;52.122;5.502;2023-07-30T05:19:12;33.95;;;11.20;;
18610;SDS011;9435;52.122;5.502;2023-07-30T05:21:39;40.28;;;11.35;;
18610;SDS011;9435;52.122;5.502;2023-07-30T05:24:08;44.47;;;12.55;;
18610;SDS011;9435;52.122;5.502;2023-07-30T05:26:35;36.45;;;12.07;;
18610;SDS011;9435;52.122;5.502;2023-07-30T05:29:02;38.58;;;11.60;;
18610;SDS011;9435;52.122;5.502;2023-07-30T05:31:29;36.60;;;11.80;;
18610;SDS011;9435;52.122;5.502;2023-07-30T05:33:56;37.88;;;12.40;;
18610;SDS011;9435;52.122;5.502;2023-07-30T05:36:23;37.60;;;12.55;;
18610;SDS011;9435;52.122;5.502;2023-07-30T05:38:50;44.10;;;13.73;;
18610;SDS011;9435;52.122;5.502;2023-07-30T05:41:19;42.45;;;12.95;;
18610;SDS011;9435;52.122;5.502;2023-07-30T05:43:47;41.88;;;13.45;;
18610;SDS011;9435;52.122;5.502;2023-07-30T05:46:14;36.05;;;12.32;;
18610;SDS011;9435;52.122;5.502;2023-07-30T05:48:41;34.45;;;12.38;;
18610;SDS011;9435;52.122;5.502;2023-07-30T05:51:08;38.28;;;12.55;;
18610;SDS011;9435;52.122;5.502;2023-07-30T05:53:35;36.95;;;11.85;;
18610;SDS011;9435;52.122;5.502;2023-07-30T05:56:02;42.33;;;12.73;;
18610;SDS011;9435;52.122;5.502;2023-07-30T05:58:31;31.70;;;11.98;;
18610;SDS011;9435;52.122;5.502;2023-07-30T06:00:58;34.03;;;11.63;;
18610;SDS011;9435;52.122;5.502;2023-07-30T06:03:25;30.40;;;10.70;;
18610;SDS011;9435;52.122;5.502;2023-07-30T06:05:52;28.77;;;11.40;;
18610;SDS011;9435;52.122;5.502;2023-07-30T06:08:19;29.10;;;11.07;;
18610;SDS011;9435;52.122;5.502;2023-07-30T06:10:46;33.08;;;11.05;;
18610;SDS011;9435;52.122;5.502;2023-07-30T06:13:13;39.72;;;11.82;;
18610;SDS011;9435;52.122;5.502;2023-07-30T06:15:41;35.75;;;12.20;;
18610;SDS011;9435;52.122;5.502;2023-07-30T06:18:09;37.22;;;12.05;;
18610;SDS011;9435;52.122;5.502;2023-07-30T06:20:36;43.17;;;13.55;;
18610;SDS011;9435;52.122;5.502;2023-07-30T06:23:03;30.88;;;11.57;;
18610;SDS011;9435;52.122;5.502;2023-07-30T06:25:30;31.17;;;12.93;;
18610;SDS011;9435;52.122;5.502;2023-07-30T06:27:57;31.95;;;11.80;;
18610;SDS011;9435;52.122;5.502;2023-07-30T06:30:24;38.22;;;12.57;;
18610;SDS011;9435;52.122;5.502;2023-07-30T06:32:53;37.60;;;12.52;;
18610;SDS011;9435;52.122;5.502;2023-07-30T06:35:20;32.88;;;11.20;;
18610;SDS011;9435;52.122;5.502;2023-07-30T06:37:47;31.38;;;11.23;;
18610;SDS011;9435;52.122;5.502;2023-07-30T06:40:14;34.97;;;12.63;;
18610;SDS011;9435;52.122;5.502;2023-07-30T06:42:41;30.95;;;11.43;;
18610;SDS011;9435;52.122;5.502;2023-07-30T06:45:08;35.30;;;12.52;;
18610;SDS011;9435;52.122;5.502;2023-07-30T06:47:36;32.80;;;11.32;;
18610;SDS011;9435;52.122;5.502;2023-07-30T06:50:04;34.58;;;11.68;;
18610;SDS011;9435;52.122;5.502;2023-07-30T06:52:33;34.72;;;11.63;;
18610;SDS011;9435;52.122;5.502;2023-07-30T06:55:01;37.33;;;11.73;;
18610;SDS011;9435;52.122;5.502;2023-07-30T06:57:28;34.63;;;11.70;;
18610;SDS011;9435;52.122;5.502;2023-07-30T06:59:56;33.85;;;10.95;;
18610;SDS011;9435;52.122;5.502;2023-07-30T07:02:23;31.25;;;10.40;;
18610;SDS011;9435;52.122;5.502;2023-07-30T07:04:50;33.15;;;9.48;;
18610;SDS011;9435;52.122;5.502;2023-07-30T07:07:19;27.73;;;9.30;;
18610;SDS011;9435;52.122;5.502;2023-07-30T07:09:46;30.25;;;9.40;;
18610;SDS011;9435;52.122;5.502;2023-07-30T07:12:13;32.65;;;9.65;;
18610;SDS011;9435;52.122;5.502;2023-07-30T07:14:40;28.77;;;8.75;;
18610;SDS011;9435;52.122;5.502;2023-07-30T07:17:08;31.35;;;9.18;;
18610;SDS011;9435;52.122;5.502;2023-07-30T07:19:35;23.83;;;8.52;;
18610;SDS011;9435;52.122;5.502;2023-07-30T07:22:03;27.85;;;8.85;;
18610;SDS011;9435;52.122;5.502;2023-07-30T07:24:31;32.03;;;8.45;;
18610;SDS011;9435;52.122;5.502;2023-07-30T07:26:58;27.25;;;8.32;;
18610;SDS011;9435;52.122;5.502;2023-07-30T07:29:25;30.25;;;9.15;;
18610;SDS011;9435;52.122;5.502;2023-07-30T07:31:52;31.58;;;8.60;;
18610;SDS011;9435;52.122;5.502;2023-07-30T07:34:19;27.63;;;7.60;;
18610;SDS011;9435;52.122;5.502;2023-07-30T07:36:47;30.85;;;7.82;;
18610;SDS011;9435;52.122;5.502;2023-07-30T07:39:14;26.60;;;8.20;;
18610;SDS011;9435;52.122;5.502;2023-07-30T07:41:42;23.02;;;6.85;;
18610;SDS011;9435;52.122;5.502;2023-07-30T07:44:09;26.27;;;7.05;;
18610;SDS011;9435;52.122;5.502;2023-07-30T07:46:36;24.95;;;6.55;;
18610;SDS011;9435;52.122;5.502;2023-07-30T07:49:03;25.08;;;6.25;;
18610;SDS011;9435;52.122;5.502;2023-07-30T07:51:30;20.27;;;6.20;;
18610;SDS011;9435;52.122;5.502;2023-07-30T07:53:58;26.70;;;6.20;;
18610;SDS011;9435;52.122;5.502;2023-07-30T07:56:25;24.80;;;5.82;;
18610;SDS011;9435;52.122;5.502;2023-07-30T07:58:53;24.13;;;5.80;;
18610;SDS011;9435;52.122;5.502;2023-07-30T08:01:20;25.05;;;5.85;;
18610;SDS011;9435;52.122;5.502;2023-07-30T08:03:48;25.23;;;5.72;;
18610;SDS011;9435;52.122;5.502;2023-07-30T08:06:15;22.30;;;5.43;;
18610;SDS011;9435;52.122;5.502;2023-07-30T08:08:42;25.65;;;6.07;;
18610;SDS011;9435;52.122;5.502;2023-07-30T08:11:09;18.58;;;5.70;;
18610;SDS011;9435;52.122;5.502;2023-07-30T08:13:36;21.05;;;5.90;;
18610;SDS011;9435;52.122;5.502;2023-07-30T08:16:05;25.58;;;5.78;;
18610;SDS011;9435;52.122;5.502;2023-07-30T08:18:32;25.65;;;5.75;;
18610;SDS011;9435;52.122;5.502;2023-07-30T08:20:59;26.10;;;6.20;;
18610;SDS011;9435;52.122;5.502;2023-07-30T08:23:27;25.02;;;5.85;;
18610;SDS011;9435;52.122;5.502;2023-07-30T08:25:54;17.75;;;4.93;;
18610;SDS011;9435;52.122;5.502;2023-07-30T08:28:21;23.33;;;5.18;;
18610;SDS011;9435;52.122;5.502;2023-07-30T08:30:48;23.45;;;5.32;;
18610;SDS011;9435;52.122;5.502;2023-07-30T08:33:16;19.55;;;5.13;;
18610;SDS011;9435;52.122;5.502;2023-07-30T08:35:43;16.50;;;5.05;;
18610;SDS011;9435;52.122;5.502;2023-07-30T08:38:10;18.83;;;4.20;;
18610;SDS011;9435;52.122;5.502;2023-07-30T08:40:37;14.93;;;4.32;;
18610;SDS011;9435;52.122;5.502;2023-07-30T08:43:05;16.67;;;4.50;;
18610;SDS011;9435;52.122;5.502;2023-07-30T08:45:32;17.00;;;4.15;;
18610;SDS011;9435;52.122;5.502;2023-07-30T08:47:59;19.65;;;4.38;;
18610;SDS011;9435;52.122;5.502;2023-07-30T08:50:28;17.85;;;3.75;;
18610;SDS011;9435;52.122;5.502;2023-07-30T08:52:56;18.10;;;3.90;;
18610;SDS011;9435;52.122;5.502;2023-07-30T08:55:25;16.92;;;3.92;;
18610;SDS011;9435;52.122;5.502;2023-07-30T08:57:55;17.40;;;3.45;;
18610;SDS011;9435;52.122;5.502;2023-07-30T09:00:23;14.10;;;3.17;;
18610;SDS011;9435;52.122;5.502;2023-07-30T09:02:52;18.92;;;3.40;;
18610;SDS011;9435;52.122;5.502;2023-07-30T09:05:22;11.75;;;3.05;;
18610;SDS011;9435;52.122;5.502;2023-07-30T09:07:50;14.23;;;3.13;;
18610;SDS011;9435;52.122;5.502;2023-07-30T09:10:17;17.30;;;3.70;;
18610;SDS011;9435;52.122;5.502;2023-07-30T09:12:44;16.40;;;3.53;;
18610;SDS011;9435;52.122;5.502;2023-07-30T09:15:11;19.48;;;3.72;;
18610;SDS011;9435;52.122;5.502;2023-07-30T09:17:38;19.60;;;3.42;;
18610;SDS011;9435;52.122;5.502;2023-07-30T09:20:06;13.13;;;3.42;;
18610;SDS011;9435;52.122;5.502;2023-07-30T09:22:34;15.15;;;3.60;;
18610;SDS011;9435;52.122;5.502;2023-07-30T09:25:06;15.63;;;3.40;;
18610;SDS011;9435;52.122;5.502;2023-07-30T09:27:34;19.65;;;4.35;;
18610;SDS011;9435;52.122;5.502;2023-07-30T09:30:02;15.50;;;3.35;;
18610;SDS011;9435;52.122;5.502;2023-07-30T09:32:31;15.05;;;3.83;;
18610;SDS011;9435;52.122;5.502;2023-07-30T09:35:03;15.63;;;3.17;;
18610;SDS011;9435;52.122;5.502;2023-07-30T09:37:31;18.63;;;3.47;;
18610;SDS011;9435;52.122;5.502;2023-07-30T09:40:02;16.83;;;2.97;;
18610;SDS011;9435;52.122;5.502;2023-07-30T09:42:31;17.17;;;3.50;;
18610;SDS011;9435;52.122;5.502;2023-07-30T09:45:03;16.92;;;3.60;;
18610;SDS011;9435;52.122;5.502;2023-07-30T09:47:32;14.88;;;3.47;;
18610;SDS011;9435;52.122;5.502;2023-07-30T09:50:01;15.98;;;3.30;;
18610;SDS011;9435;52.122;5.502;2023-07-30T09:52:28;11.05;;;2.85;;
18610;SDS011;9435;52.122;5.502;2023-07-30T09:54:56;13.27;;;3.10;;
18610;SDS011;9435;52.122;5.502;2023-07-30T09:57:24;13.88;;;3.55;;
18610;SDS011;9435;52.122;5.502;2023-07-30T09:59:53;16.52;;;3.03;;
18610;SDS011;9435;52.122;5.502;2023-07-30T10:02:20;14.48;;;3.08;;
18610;SDS011;9435;52.122;5.502;2023-07-30T10:04:49;9.45;;;2.17;;
18610;SDS011;9435;52.122;5.502;2023-07-30T10:07:20;13.23;;;2.63;;
18610;SDS011;9435;52.122;5.502;2023-07-30T10:09:50;15.48;;;2.55;;
18610;SDS011;9435;52.122;5.502;2023-07-30T10:12:21;8.68;;;2.20;;
18610;SDS011;9435;52.122;5.502;2023-07-30T10:14:52;10.20;;;2.25;;
18610;SDS011;9435;52.122;5.502;2023-07-30T10:17:20;12.05;;;2.47;;
18610;SDS011;9435;52.122;5.502;2023-07-30T10:19:47;9.30;;;2.10;;
18610;SDS011;9435;52.122;5.502;2023-07-30T10:22:22;9.52;;;1.60;;
18610;SDS011;9435;52.122;5.502;2023-07-30T10:24:56;12.75;;;1.90;;
18610;SDS011;9435;52.122;5.502;2023-07-30T10:27:25;8.10;;;1.90;;
18610;SDS011;9435;52.122;5.502;2023-07-30T10:33:00;8.27;;;1.70;;
18610;SDS011;9435;52.122;5.502;2023-07-30T10:35:35;10.50;;;1.77;;
18610;SDS011;9435;52.122;5.502;2023-07-30T10:38:17;8.57;;;1.77;;
18610;SDS011;9435;52.122;5.502;2023-07-30T10:41:01;8.75;;;1.60;;
18610;SDS011;9435;52.122;5.502;2023-07-30T10:43:31;6.90;;;1.80;;
18610;SDS011;9435;52.122;5.502;2023-07-30T10:46:01;9.68;;;1.83;;
18610;SDS011;9435;52.122;5.502;2023-07-30T10:48:33;7.00;;;1.60;;
18610;SDS011;9435;52.122;5.502;2023-07-30T10:51:02;7.15;;;1.95;;
18610;SDS011;9435;52.122;5.502;2023-07-30T10:53:31;11.70;;;1.80;;
18610;SDS011;9435;52.122;5.502;2023-07-30T10:55:58;11.02;;;2.42;;
18610;SDS011;9435;52.122;5.502;2023-07-30T10:58:28;7.32;;;1.58;;
18610;SDS011;9435;52.122;5.502;2023-07-30T11:00:57;8.82;;;1.95;;
18610;SDS011;9435;52.122;5.502;2023-07-30T11:03:24;10.05;;;1.83;;
18610;SDS011;9435;52.122;5.502;2023-07-30T11:05:54;7.40;;;1.70;;
18610;SDS011;9435;52.122;5.502;2023-07-30T11:08:21;8.20;;;1.90;;
18610;SDS011;9435;52.122;5.502;2023-07-30T11:10:59;8.48;;;1.90;;
18610;SDS011;9435;52.122;5.502;2023-07-30T11:13:26;9.52;;;1.92;;
18610;SDS011;9435;52.122;5.502;2023-07-30T11:15:53;5.90;;;1.55;;
18610;SDS011;9435;52.122;5.502;2023-07-30T11:18:21;7.60;;;1.73;;
18610;SDS011;9435;52.122;5.502;2023-07-30T11:20:48;9.05;;;1.77;;
18610;SDS011;9435;52.122;5.502;2023-07-30T11:23:18;8.30;;;1.60;;
18610;SDS011;9435;52.122;5.502;2023-07-30T11:25:47;9.85;;;1.67;;
18610;SDS011;9435;52.122;5.502;2023-07-30T11:28:15;7.15;;;1.48;;
18610;SDS011;9435;52.122;5.502;2023-07-30T11:30:55;7.63;;;1.45;;
18610;SDS011;9435;52.122;5.502;2023-07-30T11:33:26;6.00;;;1.45;;
18610;SDS011;9435;52.122;5.502;2023-07-30T11:35:53;7.45;;;1.35;;
18610;SDS011;9435;52.122;5.502;2023-07-30T11:38:23;8.27;;;1.20;;
18610;SDS011;9435;52.122;5.502;2023-07-30T11:40:51;9.98;;;1.52;;
18610;SDS011;9435;52.122;5.502;2023-07-30T11:43:19;7.95;;;1.38;;
18610;SDS011;9435;52.122;5.502;2023-07-30T11:45:47;8.18;;;1.45;;
18610;SDS011;9435;52.122;5.502;2023-07-30T11:48:14;5.82;;;1.15;;
18610;SDS011;9435;52.122;5.502;2023-07-30T11:50:45;8.27;;;1.50;;
18610;SDS011;9435;52.122;5.502;2023-07-30T11:53:13;7.50;;;1.40;;
18610;SDS011;9435;52.122;5.502;2023-07-30T11:55:42;8.95;;;1.58;;
18610;SDS011;9435;52.122;5.502;2023-07-30T11:58:10;7.53;;;1.48;;
18610;SDS011;9435;52.122;5.502;2023-07-30T12:00:38;4.22;;;1.20;;
18610;SDS011;9435;52.122;5.502;2023-07-30T12:03:08;8.02;;;1.45;;
18610;SDS011;9435;52.122;5.502;2023-07-30T12:05:37;5.60;;;1.17;;
18610;SDS011;9435;52.122;5.502;2023-07-30T12:08:13;5.35;;;1.40;;
18610;SDS011;9435;52.122;5.502;2023-07-30T12:10:44;8.18;;;1.30;;
18610;SDS011;9435;52.122;5.502;2023-07-30T12:13:13;10.77;;;1.30;;
18610;SDS011;9435;52.122;5.502;2023-07-30T12:15:42;7.05;;;1.52;;
18610;SDS011;9435;52.122;5.502;2023-07-30T12:18:10;6.60;;;1.40;;
18610;SDS011;9435;52.122;5.502;2023-07-30T12:20:37;5.47;;;1.20;;
18610;SDS011;9435;52.122;5.502;2023-07-30T12:23:04;5.80;;;1.23;;
18610;SDS011;9435;52.122;5.502;2023-07-30T12:25:31;8.15;;;1.30;;
18610;SDS011;9435;52.122;5.502;2023-07-30T12:28:01;8.80;;;1.40;;
18610;SDS011;9435;52.122;5.502;2023-07-30T12:30:28;7.38;;;1.30;;
18610;SDS011;9435;52.122;5.502;2023-07-30T12:32:55;5.28;;;1.17;;
18610;SDS011;9435;52.122;5.502;2023-07-30T12:35:23;5.85;;;1.40;;
18610;SDS011;9435;52.122;5.502;2023-07-30T12:37:50;6.75;;;1.30;;
18610;SDS011;9435;52.122;5.502;2023-07-30T12:40:17;7.00;;;1.35;;
18610;SDS011;9435;52.122;5.502;2023-07-30T12:42:44;6.45;;;1.33;;
18610;SDS011;9435;52.122;5.502;2023-07-30T12:45:13;4.72;;;1.05;;
18610;SDS011;9435;52.122;5.502;2023-07-30T12:47:40;5.90;;;1.20;;
18610;SDS011;9435;52.122;5.502;2023-07-30T12:50:07;6.85;;;1.17;;
18610;SDS011;9435;52.122;5.502;2023-07-30T12:52:35;5.95;;;1.20;;
18610;SDS011;9435;52.122;5.502;2023-07-30T12:55:02;7.93;;;1.25;;
18610;SDS011;9435;52.122;5.502;2023-07-30T12:57:29;7.28;;;1.20;;
18610;SDS011;9435;52.122;5.502;2023-07-30T12:59:57;5.57;;;1.30;;
18610;SDS011;9435;52.122;5.502;2023-07-30T13:02:25;4.30;;;1.17;;
18610;SDS011;9435;52.122;5.502;2023-07-30T13:04:52;5.55;;;1.20;;
18610;SDS011;9435;52.122;5.502;2023-07-30T13:07:19;4.78;;;1.05;;
18610;SDS011;9435;52.122;5.502;2023-07-30T13:09:46;5.30;;;0.98;;
18610;SDS011;9435;52.122;5.502;2023-07-30T13:12:13;3.47;;;1.00;;
18610;SDS011;9435;52.122;5.502;2023-07-30T13:14:40;2.97;;;0.80;;
18610;SDS011;9435;52.122;5.502;2023-07-30T13:17:07;3.38;;;0.70;;
18610;SDS011;9435;52.122;5.502;2023-07-30T13:19:36;4.65;;;0.82;;
18610;SDS011;9435;52.122;5.502;2023-07-30T13:22:03;3.55;;;0.80;;
18610;SDS011;9435;52.122;5.502;2023-07-30T13:24:31;5.75;;;0.90;;
18610;SDS011;9435;52.122;5.502;2023-07-30T13:27:00;3.35;;;0.82;;
18610;SDS011;9435;52.122;5.502;2023-07-30T13:29:27;3.20;;;0.90;;
18610;SDS011;9435;52.122;5.502;2023-07-30T13:31:54;5.30;;;0.88;;
18610;SDS011;9435;52.122;5.502;2023-07-30T13:34:21;5.40;;;1.10;;
18610;SDS011;9435;52.122;5.502;2023-07-30T13:36:50;4.43;;;0.90;;
18610;SDS011;9435;52.122;5.502;2023-07-30T13:39:17;4.63;;;0.80;;
18610;SDS011;9435;52.122;5.502;2023-07-30T13:41:44;4.88;;;1.05;;
18610;SDS011;9435;52.122;5.502;2023-07-30T13:44:11;5.47;;;1.00;;
18610;SDS011;9435;52.122;5.502;2023-07-30T13:46:38;3.45;;;1.02;;
18610;SDS011;9435;52.122;5.502;2023-07-30T13:49:06;4.75;;;0.98;;
18610;SDS011;9435;52.122;5.502;2023-07-30T13:51:33;4.50;;;1.00;;
18610;SDS011;9435;52.122;5.502;2023-07-30T13:54:02;9.02;;;1.20;;
18610;SDS011;9435;52.122;5.502;2023-07-30T13:56:30;5.88;;;1.20;;
18610;SDS011;9435;52.122;5.502;2023-07-30T13:58:57;5.13;;;1.00;;
18610;SDS011;9435;52.122;5.502;2023-07-30T14:01:24;6.50;;;1.20;;
18610;SDS011;9435;52.122;5.502;2023-07-30T14:03:51;4.63;;;1.08;;
18610;SDS011;9435;52.122;5.502;2023-07-30T14:06:18;4.88;;;1.10;;
18610;SDS011;9435;52.122;5.502;2023-07-30T14:08:45;4.00;;;1.05;;
18610;SDS011;9435;52.122;5.502;2023-07-30T14:11:14;7.68;;;1.30;;
18610;SDS011;9435;52.122;5.502;2023-07-30T14:13:41;6.55;;;1.30;;
18610;SDS011;9435;52.122;5.502;2023-07-30T14:16:08;5.85;;;1.27;;
18610;SDS011;9435;52.122;5.502;2023-07-30T14:18:35;5.10;;;0.88;;
18610;SDS011;9435;52.122;5.502;2023-07-30T14:21:04;6.93;;;1.10;;
18610;SDS011;9435;52.122;5.502;2023-07-30T14:23:31;6.80;;;1.30;;
18610;SDS011;9435;52.122;5.502;2023-07-30T14:25:58;6.00;;;1.13;;
18610;SDS011;9435;52.122;5.502;2023-07-30T14:28:26;7.63;;;1.25;;
18610;SDS011;9435;52.122;5.502;2023-07-30T14:30:53;4.70;;;1.10;;
18610;SDS011;9435;52.122;5.502;2023-07-30T14:33:20;5.30;;;1.00;;
18610;SDS011;9435;52.122;5.502;2023-07-30T14:35:47;8.35;;;1.40;;
18610;SDS011;9435;52.122;5.502;2023-07-30T14:38:15;6.25;;;1.40;;
18610;SDS011;9435;52.122;5.502;2023-07-30T14:40:42;5.85;;;1.30;;
18610;SDS011;9435;52.122;5.502;2023-07-30T14:43:09;5.68;;;1.25;;
18610;SDS011;9435;52.122;5.502;2023-07-30T14:45:38;9.10;;;1.40;;
18610;SDS011;9435;52.122;5.502;2023-07-30T14:48:05;9.27;;;1.42;;
18610;SDS011;9435;52.122;5.502;2023-07-30T14:50:32;8.13;;;1.70;;
18610;SDS011;9435;52.122;5.502;2023-07-30T14:52:59;6.60;;;1.35;;
18610;SDS011;9435;52.122;5.502;2023-07-30T14:55:26;8.40;;;1.45;;
18610;SDS011;9435;52.122;5.502;2023-07-30T14:57:53;8.15;;;1.52;;